createdAt,value
2018-09-02T00:00:15.507Z,15.05
2018-09-02T00:01:15.537Z,14.97
2018-09-02T00:02:15.566Z,15.02
2018-09-02T00:03:15.596Z,15.04
2018-09-02T00:04:15.621Z,14.90
2018-09-02T00:05:15.651Z,14.95
2018-09-02T00:06:15.679Z,15.05
2018-09-02T00:07:15.706Z,14.95
2018-09-02T00:08:15.734Z,14.94
2018-09-02T00:09:15.766Z,14.94
2018-09-02T00:10:15.791Z,14.95
2018-09-02T00:11:15.820Z,15.04
2018-09-02T00:12:15.847Z,15.01
2018-09-02T00:13:15.875Z,14.94
2018-09-02T00:14:15.902Z,14.95
2018-09-02T00:15:15.933Z,14.98
2018-09-02T00:16:15.959Z,14.94
2018-09-02T00:17:15.989Z,14.97
2018-09-02T00:18:16.014Z,14.89
2018-09-02T00:19:16.042Z,14.87
2018-09-02T00:20:16.073Z,14.86
2018-09-02T00:21:16.098Z,14.93
2018-09-02T00:22:16.127Z,14.90
2018-09-02T00:23:16.157Z,14.89
2018-09-02T00:24:16.187Z,14.93
2018-09-02T00:25:16.214Z,14.89
2018-09-02T00:26:16.241Z,14.87
2018-09-02T00:27:16.268Z,14.80
2018-09-02T00:28:16.299Z,14.86
2018-09-02T00:29:16.324Z,14.75
2018-09-02T00:30:16.371Z,14.80
2018-09-02T00:31:16.382Z,14.75
2018-09-02T00:32:16.409Z,14.74
2018-09-02T00:33:16.541Z,14.75
2018-09-02T00:34:16.465Z,14.79
2018-09-02T00:35:16.497Z,14.77
2018-09-02T00:36:16.525Z,14.77
2018-09-02T00:37:16.552Z,14.80
2018-09-02T00:38:16.580Z,14.74
2018-09-02T00:39:16.607Z,14.74
2018-09-02T00:40:16.634Z,14.77
2018-09-02T00:41:16.662Z,14.79
2018-09-02T00:42:16.690Z,14.77
2018-09-02T00:43:16.719Z,14.70
2018-09-02T00:44:16.750Z,14.77
2018-09-02T00:45:16.777Z,14.74
2018-09-02T00:46:16.805Z,14.71
2018-09-02T00:47:16.835Z,14.67
2018-09-02T00:48:16.861Z,14.66
2018-09-02T00:49:16.889Z,14.67
2018-09-02T00:50:16.917Z,14.70
2018-09-02T00:51:16.943Z,14.71
2018-09-02T00:52:16.972Z,14.75
2018-09-02T00:53:17.001Z,14.70
2018-09-02T00:54:17.027Z,14.71
2018-09-02T00:55:17.055Z,14.60
2018-09-02T00:56:17.084Z,14.69
2018-09-02T00:57:17.111Z,14.69
2018-09-02T00:58:17.139Z,14.66
2018-09-02T00:59:17.171Z,14.59
2018-09-02T01:00:17.195Z,14.60
2018-09-02T01:01:17.225Z,14.64
2018-09-02T01:02:17.250Z,14.64
2018-09-02T01:03:17.280Z,14.61
2018-09-02T01:04:17.308Z,14.60
2018-09-02T01:05:17.337Z,14.52
2018-09-02T01:06:17.367Z,14.59
2018-09-02T01:07:17.396Z,14.46
2018-09-02T01:08:17.422Z,14.53
2018-09-02T01:09:17.452Z,14.44
2018-09-02T01:10:17.478Z,14.45
2018-09-02T01:11:17.506Z,14.49
2018-09-02T01:12:17.532Z,14.45
2018-09-02T01:13:17.561Z,14.46
2018-09-02T01:14:17.586Z,14.42
2018-09-02T01:15:17.618Z,14.48
2018-09-02T01:16:17.646Z,14.42
2018-09-02T01:17:17.677Z,14.45
2018-09-02T01:18:17.699Z,14.44
2018-09-02T01:19:17.730Z,14.46
2018-09-02T01:20:17.759Z,14.51
2018-09-02T01:21:17.786Z,14.45
2018-09-02T01:22:17.814Z,14.51
2018-09-02T01:23:17.841Z,14.46
2018-09-02T01:24:17.868Z,14.44
2018-09-02T01:25:17.897Z,14.46
2018-09-02T01:26:17.924Z,14.42
2018-09-02T01:27:17.954Z,14.45
2018-09-02T01:28:17.982Z,14.39
2018-09-02T01:29:18.008Z,14.30
2018-09-02T01:30:18.037Z,14.41
2018-09-02T01:31:18.063Z,14.42
2018-09-02T01:32:18.094Z,14.31
2018-09-02T01:33:18.120Z,14.28
2018-09-02T01:34:18.148Z,14.30
2018-09-02T01:35:18.177Z,14.36
2018-09-02T01:36:18.202Z,14.33
2018-09-02T01:37:18.230Z,14.28
2018-09-02T01:38:18.260Z,14.27
2018-09-02T01:39:18.293Z,14.33
2018-09-02T01:40:18.318Z,14.28
2018-09-02T01:41:18.344Z,14.33
2018-09-02T01:42:18.370Z,14.26
2018-09-02T01:43:18.398Z,14.31
2018-09-02T01:44:18.428Z,14.28
2018-09-02T01:45:18.455Z,14.26
2018-09-02T01:46:18.483Z,14.30
2018-09-02T01:47:18.512Z,14.28
2018-09-02T01:48:18.542Z,14.31
2018-09-02T01:49:18.567Z,14.30
2018-09-02T01:50:18.592Z,14.27
2018-09-02T01:51:18.622Z,14.28
2018-09-02T01:52:18.650Z,14.26
2018-09-02T01:53:18.677Z,14.24
2018-09-02T01:54:18.704Z,14.20
2018-09-02T01:55:18.735Z,14.26
2018-09-02T01:56:18.761Z,14.26
2018-09-02T01:57:18.790Z,14.27
2018-09-02T01:58:18.819Z,14.24
2018-09-02T01:59:18.846Z,14.27
2018-09-02T02:00:18.874Z,14.26
2018-09-02T02:01:18.902Z,14.23
2018-09-02T02:02:18.928Z,14.16
2018-09-02T02:03:18.955Z,14.23
2018-09-02T02:04:18.987Z,14.23
2018-09-02T02:05:19.016Z,14.16
2018-09-02T02:06:19.041Z,14.27
2018-09-02T02:07:19.072Z,14.21
2018-09-02T02:08:19.098Z,14.12
2018-09-02T02:09:19.123Z,14.16
2018-09-02T02:10:19.151Z,14.21
2018-09-02T02:11:19.178Z,14.03
2018-09-02T02:12:19.207Z,14.13
2018-09-02T02:13:19.235Z,14.23
2018-09-02T02:14:19.264Z,14.16
2018-09-02T02:15:19.294Z,14.19
2018-09-02T02:16:19.321Z,14.21
2018-09-02T02:17:19.345Z,14.15
2018-09-02T02:18:19.374Z,14.23
2018-09-02T02:19:19.402Z,14.12
2018-09-02T02:20:19.430Z,14.20
2018-09-02T02:21:19.459Z,14.12
2018-09-02T02:22:19.493Z,14.15
2018-09-02T02:23:19.514Z,14.16
2018-09-02T02:24:19.544Z,14.06
2018-09-02T02:25:19.572Z,14.05
2018-09-02T02:26:19.597Z,14.11
2018-09-02T02:27:19.626Z,14.06
2018-09-02T02:28:19.656Z,14.16
2018-09-02T02:29:19.681Z,14.05
2018-09-02T02:30:19.711Z,14.09
2018-09-02T02:31:19.737Z,13.97
2018-09-02T02:32:19.767Z,14.01
2018-09-02T02:33:19.798Z,14.11
2018-09-02T02:34:19.819Z,14.05
2018-09-02T02:35:19.851Z,14.03
2018-09-02T02:36:19.877Z,14.03
2018-09-02T02:37:19.905Z,13.99
2018-09-02T02:38:19.935Z,14.01
2018-09-02T02:39:19.959Z,14.03
2018-09-02T02:40:19.990Z,14.08
2018-09-02T02:41:20.021Z,14.03
2018-09-02T02:42:20.045Z,14.08
2018-09-02T02:43:20.071Z,14.01
2018-09-02T02:44:20.099Z,14.03
2018-09-02T02:45:20.126Z,14.02
2018-09-02T02:46:20.154Z,13.97
2018-09-02T02:47:20.182Z,13.97
2018-09-02T02:48:20.212Z,14.02
2018-09-02T02:49:20.237Z,13.95
2018-09-02T02:50:20.267Z,13.99
2018-09-02T02:51:20.293Z,13.95
2018-09-02T02:52:20.322Z,13.93
2018-09-02T02:53:20.349Z,13.95
2018-09-02T02:54:20.379Z,13.99
2018-09-02T02:55:20.410Z,13.90
2018-09-02T02:56:20.435Z,13.88
2018-09-02T02:57:20.510Z,13.95
2018-09-02T02:58:20.493Z,13.95
2018-09-02T02:59:20.515Z,13.99
2018-09-02T03:00:20.547Z,13.93
2018-09-02T03:01:20.574Z,13.91
2018-09-02T03:02:20.601Z,13.91
2018-09-02T03:03:20.628Z,13.93
2018-09-02T03:04:20.658Z,13.88
2018-09-02T03:05:20.682Z,13.90
2018-09-02T03:06:20.715Z,13.90
2018-09-02T03:07:20.737Z,13.91
2018-09-02T03:08:20.768Z,13.86
2018-09-02T03:09:20.795Z,13.97
2018-09-02T03:10:20.828Z,13.88
2018-09-02T03:11:20.857Z,13.94
2018-09-02T03:12:20.880Z,13.94
2018-09-02T03:13:20.905Z,13.97
2018-09-02T03:14:20.934Z,13.97
2018-09-02T03:15:20.961Z,13.95
2018-09-02T03:16:20.990Z,13.97
2018-09-02T03:17:21.018Z,13.93
2018-09-02T03:18:21.047Z,13.91
2018-09-02T03:19:21.077Z,13.95
2018-09-02T03:20:21.104Z,13.95
2018-09-02T03:21:21.129Z,13.95
2018-09-02T03:22:21.155Z,13.93
2018-09-02T03:23:21.183Z,13.97
2018-09-02T03:24:21.212Z,13.91
2018-09-02T03:25:21.241Z,13.90
2018-09-02T03:26:21.267Z,13.91
2018-09-02T03:27:21.297Z,13.99
2018-09-02T03:28:21.325Z,13.93
2018-09-02T03:29:21.351Z,13.95
2018-09-02T03:30:21.378Z,13.95
2018-09-02T03:31:21.412Z,13.90
2018-09-02T03:32:21.435Z,14.01
2018-09-02T03:33:21.466Z,13.95
2018-09-02T03:34:21.489Z,13.91
2018-09-02T03:35:21.519Z,13.91
2018-09-02T03:36:21.547Z,13.93
2018-09-02T03:37:21.574Z,13.93
2018-09-02T03:38:21.602Z,13.88
2018-09-02T03:39:21.630Z,14.05
2018-09-02T03:40:21.656Z,14.03
2018-09-02T03:41:21.685Z,13.95
2018-09-02T03:42:21.714Z,14.03
2018-09-02T03:43:21.742Z,13.99
2018-09-02T03:44:21.771Z,13.97
2018-09-02T03:45:21.796Z,14.05
2018-09-02T03:46:21.825Z,14.03
2018-09-02T03:47:21.850Z,14.02
2018-09-02T03:48:21.878Z,14.03
2018-09-02T03:49:21.908Z,14.05
2018-09-02T03:50:21.935Z,14.11
2018-09-02T03:51:21.966Z,14.11
2018-09-02T03:52:21.994Z,14.15
2018-09-02T03:53:22.019Z,14.19
2018-09-02T03:54:22.047Z,14.20
2018-09-02T03:55:22.075Z,14.13
2018-09-02T03:56:22.107Z,14.12
2018-09-02T03:57:22.128Z,14.12
2018-09-02T03:58:22.158Z,14.15
2018-09-02T03:59:22.186Z,14.20
2018-09-02T04:00:22.212Z,14.19
2018-09-02T04:01:22.242Z,14.26
2018-09-02T04:02:22.278Z,14.21
2018-09-02T04:03:22.294Z,14.23
2018-09-02T04:04:22.326Z,14.30
2018-09-02T04:05:22.350Z,14.31
2018-09-02T04:06:22.381Z,14.30
2018-09-02T04:07:22.410Z,14.31
2018-09-02T04:08:22.437Z,14.39
2018-09-02T04:09:22.465Z,14.30
2018-09-02T04:10:22.511Z,14.31
2018-09-02T04:11:22.559Z,14.38
2018-09-02T04:12:22.549Z,14.30
2018-09-02T04:13:22.574Z,14.34
2018-09-02T04:14:22.604Z,14.31
2018-09-02T04:15:22.630Z,14.34
2018-09-02T04:16:22.659Z,14.27
2018-09-02T04:17:22.688Z,14.42
2018-09-02T04:18:22.716Z,14.44
2018-09-02T04:19:22.742Z,14.42
2018-09-02T04:20:22.772Z,14.44
2018-09-02T04:21:22.799Z,14.34
2018-09-02T04:22:22.827Z,14.39
2018-09-02T04:23:22.852Z,14.42
2018-09-02T04:24:22.884Z,14.34
2018-09-02T04:25:22.909Z,14.31
2018-09-02T04:26:22.937Z,14.36
2018-09-02T04:27:22.968Z,14.33
2018-09-02T04:28:22.994Z,14.24
2018-09-02T04:29:23.021Z,14.24
2018-09-02T04:30:23.051Z,14.33
2018-09-02T04:31:23.079Z,14.26
2018-09-02T04:32:23.108Z,14.21
2018-09-02T04:33:23.135Z,14.21
2018-09-02T04:34:23.167Z,14.26
2018-09-02T04:35:23.189Z,14.20
2018-09-02T04:36:23.298Z,14.23
2018-09-02T04:37:23.246Z,14.19
2018-09-02T04:38:23.271Z,14.12
2018-09-02T04:39:23.299Z,14.16
2018-09-02T04:40:23.332Z,14.13
2018-09-02T04:41:23.357Z,14.05
2018-09-02T04:42:23.382Z,14.16
2018-09-02T04:43:23.410Z,14.20
2018-09-02T04:44:23.440Z,14.15
2018-09-02T04:45:23.608Z,14.15
2018-09-02T04:46:23.497Z,14.13
2018-09-02T04:47:23.527Z,14.11
2018-09-02T04:48:23.551Z,14.08
2018-09-02T04:49:23.578Z,14.01
2018-09-02T04:50:23.606Z,14.09
2018-09-02T04:51:23.634Z,14.02
2018-09-02T04:52:23.664Z,14.03
2018-09-02T04:53:23.689Z,14.06
2018-09-02T04:54:23.873Z,14.01
2018-09-02T04:55:23.748Z,14.01
2018-09-02T04:56:23.772Z,14.05
2018-09-02T04:57:23.807Z,14.03
2018-09-02T04:58:23.828Z,14.03
2018-09-02T04:59:23.859Z,14.06
2018-09-02T05:00:23.928Z,14.05
2018-09-02T05:01:23.914Z,14.06
2018-09-02T05:02:23.940Z,14.03
2018-09-02T05:03:23.971Z,14.08
2018-09-02T05:04:23.996Z,14.03
2018-09-02T05:05:24.023Z,14.02
2018-09-02T05:06:24.051Z,14.03
2018-09-02T05:07:24.080Z,14.02
2018-09-02T05:08:24.107Z,14.06
2018-09-02T05:09:24.137Z,14.03
2018-09-02T05:10:24.168Z,14.09
2018-09-02T05:11:24.196Z,14.02
2018-09-02T05:12:24.221Z,14.05
2018-09-02T05:13:24.245Z,14.03
2018-09-02T05:14:24.275Z,14.05
2018-09-02T05:15:24.304Z,13.95
2018-09-02T05:16:24.329Z,14.03
2018-09-02T05:17:24.359Z,14.02
2018-09-02T05:18:24.389Z,14.03
2018-09-02T05:19:24.413Z,13.94
2018-09-02T05:20:24.441Z,13.97
2018-09-02T05:21:24.468Z,13.99
2018-09-02T05:22:24.498Z,13.93
2018-09-02T05:23:24.525Z,14.01
2018-09-02T05:24:24.552Z,14.02
2018-09-02T05:25:24.579Z,14.02
2018-09-02T05:26:24.610Z,14.05
2018-09-02T05:27:24.635Z,14.05
2018-09-02T05:28:24.666Z,14.09
2018-09-02T05:29:24.693Z,14.03
2018-09-02T05:30:24.721Z,14.05
2018-09-02T05:31:24.747Z,14.11
2018-09-02T05:32:24.778Z,14.11
2018-09-02T05:33:24.803Z,14.16
2018-09-02T05:34:24.829Z,14.15
2018-09-02T05:35:24.860Z,14.08
2018-09-02T05:36:24.889Z,14.03
2018-09-02T05:37:24.913Z,14.15
2018-09-02T05:38:24.940Z,14.06
2018-09-02T05:39:24.969Z,14.20
2018-09-02T05:40:25.000Z,14.15
2018-09-02T05:41:25.026Z,14.23
2018-09-02T05:42:25.053Z,14.20
2018-09-02T05:43:25.083Z,14.23
2018-09-02T05:44:25.111Z,14.23
2018-09-02T05:45:25.138Z,14.20
2018-09-02T05:46:25.167Z,14.24
2018-09-02T05:47:25.201Z,14.20
2018-09-02T05:48:25.219Z,14.16
2018-09-02T05:49:25.248Z,14.26
2018-09-02T05:50:25.280Z,14.31
2018-09-02T05:51:25.306Z,14.31
2018-09-02T05:52:25.332Z,14.36
2018-09-02T05:53:25.363Z,14.30
2018-09-02T05:54:25.407Z,14.27
2018-09-02T05:55:25.416Z,14.33
2018-09-02T05:56:25.446Z,14.41
2018-09-02T05:57:25.482Z,14.42
2018-09-02T05:58:25.502Z,14.45
2018-09-02T05:59:25.529Z,14.46
2018-09-02T06:00:25.557Z,14.44
2018-09-02T06:01:25.582Z,14.59
2018-09-02T06:02:25.613Z,14.63
2018-09-02T06:03:25.638Z,14.63
2018-09-02T06:04:25.667Z,14.69
2018-09-02T06:05:25.696Z,14.74
2018-09-02T06:06:25.724Z,14.71
2018-09-02T06:07:25.753Z,14.66
2018-09-02T06:08:25.778Z,14.71
2018-09-02T06:09:25.810Z,14.77
2018-09-02T06:10:25.834Z,14.75
2018-09-02T06:11:25.865Z,14.70
2018-09-02T06:12:25.892Z,14.75
2018-09-02T06:13:25.923Z,14.97
2018-09-02T06:14:25.946Z,14.90
2018-09-02T06:15:25.974Z,15.00
2018-09-02T06:16:26.003Z,14.98
2018-09-02T06:17:26.173Z,15.01
2018-09-02T06:18:26.061Z,15.04
2018-09-02T06:19:26.090Z,15.18
2018-09-02T06:20:26.116Z,15.25
2018-09-02T06:21:26.145Z,15.23
2018-09-02T06:22:26.171Z,15.34
2018-09-02T06:23:26.204Z,15.45
2018-09-02T06:24:26.226Z,15.71
2018-09-02T06:25:26.258Z,16.33
2018-09-02T06:26:26.284Z,16.70
2018-09-02T06:27:26.313Z,17.06
2018-09-02T06:28:26.343Z,17.47
2018-09-02T06:29:26.370Z,17.74
2018-09-02T06:30:26.419Z,18.01
2018-09-02T06:31:26.427Z,18.16
2018-09-02T06:32:26.457Z,18.27
2018-09-02T06:33:26.486Z,18.34
2018-09-02T06:34:26.512Z,18.50
2018-09-02T06:35:26.559Z,18.66
2018-09-02T06:36:26.569Z,18.82
2018-09-02T06:38:57.269Z,18.97
2018-09-02T06:39:54.286Z,19.16
2018-09-02T06:40:54.318Z,18.93
2018-09-02T06:41:54.346Z,19.32
2018-09-02T06:42:54.380Z,19.20
2018-09-02T06:43:54.408Z,19.19
2018-09-02T06:44:54.435Z,19.49
2018-09-02T06:45:54.466Z,19.55
2018-09-02T06:46:54.500Z,19.85
2018-09-02T06:47:54.527Z,20.01
2018-09-02T06:48:54.558Z,20.11
2018-09-02T06:49:54.592Z,20.07
2018-09-02T06:50:54.622Z,20.23
2018-09-02T06:51:54.656Z,20.35
2018-09-02T06:52:54.685Z,20.57
2018-09-02T06:53:54.716Z,20.51
2018-09-02T06:54:54.745Z,20.60
2018-09-02T06:55:54.776Z,20.71
2018-09-02T06:56:54.810Z,20.56
2018-09-02T06:57:54.840Z,20.79
2018-09-02T06:58:54.875Z,20.91
2018-09-02T06:59:54.906Z,20.82
2018-09-02T07:00:54.941Z,20.71
2018-09-02T07:01:54.969Z,20.72
2018-09-02T07:02:55.001Z,20.71
2018-09-02T07:03:55.037Z,20.56
2018-09-02T07:04:55.066Z,20.35
2018-09-02T07:05:55.147Z,20.57
2018-09-02T07:06:55.134Z,20.61
2018-09-02T07:07:55.166Z,20.82
2018-09-02T07:08:55.199Z,20.96
2018-09-02T07:09:55.233Z,21.15
2018-09-02T07:10:55.264Z,21.46
2018-09-02T07:11:55.299Z,21.34
2018-09-02T07:12:55.328Z,21.28
2018-09-02T07:13:55.365Z,21.41
2018-09-02T07:14:55.398Z,21.53
2018-09-02T07:15:55.430Z,21.62
2018-09-02T07:16:55.466Z,21.83
2018-09-02T07:17:55.899Z,21.99
2018-09-02T07:18:56.135Z,21.89
2018-09-02T07:19:55.618Z,21.77
2018-09-02T07:20:55.597Z,21.66
2018-09-02T07:21:55.635Z,21.70
2018-09-02T07:22:55.664Z,21.94
2018-09-02T07:23:55.699Z,21.90
2018-09-02T07:24:55.735Z,21.89
2018-09-02T07:25:55.766Z,21.92
2018-09-02T07:26:55.802Z,21.94
2018-09-02T07:27:55.834Z,21.93
2018-09-02T07:28:55.874Z,22.23
2018-09-02T07:29:55.903Z,22.30
2018-09-02T07:30:55.937Z,22.61
2018-09-02T07:31:55.971Z,23.01
2018-09-02T07:32:56.010Z,22.75
2018-09-02T07:33:56.041Z,22.60
2018-09-02T07:34:56.078Z,22.79
2018-09-02T07:35:56.109Z,23.14
2018-09-02T07:36:56.145Z,23.25
2018-09-02T07:37:56.180Z,23.34
2018-09-02T07:38:56.220Z,23.18
2018-09-02T07:39:56.252Z,23.41
2018-09-02T07:40:56.285Z,23.62
2018-09-02T07:42:56.358Z,23.77
2018-09-02T07:43:56.424Z,24.00
2018-09-02T07:44:56.428Z,23.79
2018-09-02T07:45:56.470Z,23.63
2018-09-02T07:46:56.498Z,23.62
2018-09-02T07:47:56.532Z,23.71
2018-09-02T07:48:59.194Z,23.26
2018-09-02T07:49:56.604Z,23.59
2018-09-02T07:51:56.678Z,23.45
2018-09-02T07:52:56.714Z,23.47
2018-09-02T07:53:56.751Z,23.59
2018-09-02T07:54:56.787Z,23.90
2018-09-02T07:55:56.822Z,23.90
2018-09-02T07:56:56.859Z,23.93
2018-09-02T07:57:56.897Z,23.97
2018-09-02T07:58:56.929Z,24.26
2018-09-02T07:59:56.969Z,24.54
2018-09-02T08:00:57.004Z,24.61
2018-09-02T08:01:57.040Z,24.75
2018-09-02T08:02:57.074Z,25.02
2018-09-02T08:03:57.113Z,25.23
2018-09-02T08:04:57.148Z,25.47
2018-09-02T08:05:57.187Z,25.29
2018-09-02T08:06:57.221Z,25.27
2018-09-02T08:07:57.259Z,25.57
2018-09-02T08:08:57.296Z,25.47
2018-09-02T08:09:57.331Z,25.05
2018-09-02T08:10:57.368Z,25.26
2018-09-02T08:11:57.407Z,25.30
2018-09-02T08:12:57.646Z,25.08
2018-09-02T08:13:57.509Z,25.02
2018-09-02T08:14:57.518Z,25.14
2018-09-02T08:16:57.599Z,25.26
2018-09-02T08:17:57.630Z,25.05
2018-09-02T08:18:57.669Z,25.26
2018-09-02T08:20:57.744Z,25.67
2018-09-02T08:21:57.783Z,25.60
2018-09-02T08:22:57.819Z,25.76
2018-09-02T08:23:57.854Z,26.22
2018-09-02T08:24:57.890Z,26.26
2018-09-02T08:25:57.928Z,26.59
2018-09-02T08:26:57.967Z,26.91
2018-09-02T08:27:58.006Z,27.33
2018-09-02T08:28:58.053Z,26.82
2018-09-02T08:29:58.081Z,27.05
2018-09-02T08:30:58.117Z,26.97
2018-09-02T08:31:58.159Z,27.16
2018-09-02T08:32:58.247Z,27.06
2018-09-02T08:33:58.229Z,26.71
2018-09-02T08:34:58.271Z,27.05
2018-09-02T08:35:58.309Z,27.01
2018-09-02T08:36:58.347Z,26.52
2018-09-02T08:37:58.384Z,26.53
2018-09-02T08:38:58.427Z,26.75
2018-09-02T08:39:58.459Z,27.16
2018-09-02T08:40:58.498Z,27.12
2018-09-02T08:41:58.539Z,27.24
2018-09-02T08:42:58.575Z,27.38
2018-09-02T08:43:58.632Z,27.19
2018-09-02T08:44:58.651Z,27.37
2018-09-02T08:45:58.690Z,27.43
2018-09-02T08:46:58.734Z,27.45
2018-09-02T08:47:58.766Z,27.75
2018-09-02T08:48:58.805Z,27.46
2018-09-02T08:49:58.844Z,27.00
2018-09-02T08:50:58.885Z,27.19
2018-09-02T08:51:58.919Z,27.16
2018-09-02T08:52:58.960Z,27.00
2018-09-02T08:53:59.001Z,27.49
2018-09-02T08:54:59.040Z,27.04
2018-09-02T08:55:59.111Z,27.52
2018-09-02T08:56:59.118Z,27.93
2018-09-02T08:57:59.154Z,27.71
2018-09-02T08:58:59.196Z,27.30
2018-09-02T08:59:59.233Z,27.57
2018-09-02T09:00:59.269Z,27.79
2018-09-02T09:01:59.312Z,28.14
2018-09-02T09:02:59.395Z,28.63
2018-09-02T09:03:59.387Z,28.36
2018-09-02T09:04:59.428Z,28.45
2018-09-02T09:05:59.476Z,28.35
2018-09-02T09:06:59.509Z,28.46
2018-09-02T09:07:59.609Z,28.42
2018-09-02T09:08:59.760Z,28.17
2018-09-02T09:09:59.622Z,28.35
2018-09-02T09:10:59.664Z,28.46
2018-09-02T09:11:59.700Z,28.24
2018-09-02T09:12:59.742Z,27.99
2018-09-02T09:13:59.850Z,28.54
2018-09-02T09:14:59.822Z,28.86
2018-09-02T09:15:59.857Z,27.91
2018-09-02T09:16:59.956Z,27.79
2018-09-02T09:17:59.939Z,28.14
2018-09-02T09:18:59.978Z,28.38
2018-09-02T09:20:00.017Z,28.26
2018-09-02T09:21:00.054Z,28.36
2018-09-02T09:22:00.097Z,28.36
2018-09-02T09:23:00.137Z,28.26
2018-09-02T09:24:00.198Z,28.14
2018-09-02T09:25:00.872Z,28.28
2018-09-02T09:26:00.254Z,28.31
2018-09-02T09:27:00.294Z,28.12
2018-09-02T09:28:00.331Z,28.46
2018-09-02T09:29:00.373Z,28.49
2018-09-02T09:30:00.414Z,28.49
2018-09-02T09:31:00.451Z,28.80
2018-09-02T09:32:00.491Z,28.90
2018-09-02T09:33:00.529Z,29.02
2018-09-02T09:34:00.570Z,29.02
2018-09-02T09:35:00.608Z,29.36
2018-09-02T09:36:00.650Z,28.86
2018-09-02T09:37:00.690Z,28.76
2018-09-02T09:38:00.728Z,29.03
2018-09-02T09:39:00.767Z,28.72
2018-09-02T09:40:00.812Z,28.92
2018-09-02T09:41:00.852Z,28.85
2018-09-02T09:42:00.890Z,28.68
2018-09-02T09:43:00.929Z,29.01
2018-09-02T09:44:00.968Z,29.02
2018-09-02T09:45:01.008Z,29.23
2018-09-02T09:46:01.125Z,29.24
2018-09-02T09:47:01.086Z,29.32
2018-09-02T09:48:01.126Z,29.06
2018-09-02T09:49:01.164Z,29.10
2018-09-02T09:50:01.209Z,29.30
2018-09-02T09:51:01.245Z,28.86
2018-09-02T09:52:01.289Z,29.10
2018-09-02T09:53:01.329Z,28.94
2018-09-02T09:54:01.366Z,28.82
2018-09-02T09:55:01.406Z,28.67
2018-09-02T09:56:01.445Z,28.91
2018-09-02T09:57:01.482Z,29.02
2018-09-02T09:58:01.526Z,29.21
2018-09-02T09:59:01.574Z,29.32
2018-09-02T10:00:01.603Z,29.45
2018-09-02T10:01:01.640Z,29.54
2018-09-02T10:02:01.684Z,29.38
2018-09-02T10:03:01.722Z,29.36
2018-09-02T10:04:01.761Z,29.30
2018-09-02T10:05:01.801Z,29.47
2018-09-02T10:06:01.843Z,28.83
2018-09-02T10:07:01.882Z,28.92
2018-09-02T10:08:01.920Z,29.33
2018-09-02T10:09:01.962Z,29.01
2018-09-02T10:10:02.004Z,29.23
2018-09-02T10:11:02.043Z,29.38
2018-09-02T10:12:02.082Z,29.35
2018-09-02T10:13:02.117Z,30.03
2018-09-02T10:14:02.164Z,30.09
2018-09-02T10:15:02.198Z,30.22
2018-09-02T10:16:02.239Z,30.18
2018-09-02T10:17:02.281Z,30.06
2018-09-02T10:18:02.380Z,29.88
2018-09-02T10:19:02.358Z,29.82
2018-09-02T10:20:02.399Z,30.25
2018-09-02T10:21:02.437Z,29.92
2018-09-02T10:22:02.478Z,30.09
2018-09-02T10:23:02.520Z,29.60
2018-09-02T10:24:02.556Z,29.70
2018-09-02T10:25:02.598Z,29.66
2018-09-02T10:26:02.636Z,29.81
2018-09-02T10:27:02.677Z,30.16
2018-09-02T10:28:02.718Z,29.70
2018-09-02T10:29:02.755Z,29.98
2018-09-02T10:30:02.797Z,29.79
2018-09-02T10:31:02.834Z,30.07
2018-09-02T10:32:02.876Z,30.13
2018-09-02T10:33:02.914Z,30.06
2018-09-02T10:34:02.953Z,30.24
2018-09-02T10:35:02.994Z,30.16
2018-09-02T10:36:03.032Z,30.39
2018-09-02T10:37:03.075Z,30.22
2018-09-02T10:38:03.115Z,30.25
2018-09-02T10:39:03.154Z,30.79
2018-09-02T10:40:03.194Z,30.70
2018-09-02T10:41:03.306Z,30.52
2018-09-02T10:42:03.276Z,30.31
2018-09-02T10:43:03.311Z,30.22
2018-09-02T10:44:03.353Z,30.19
2018-09-02T10:45:03.392Z,30.70
2018-09-02T10:46:03.434Z,30.81
2018-09-02T10:47:03.471Z,30.96
2018-09-02T10:48:03.512Z,30.84
2018-09-02T10:49:03.554Z,30.45
2018-09-02T10:50:03.593Z,31.00
2018-09-02T10:51:03.635Z,30.94
2018-09-02T10:52:03.674Z,30.85
2018-09-02T10:53:03.712Z,30.31
2018-09-02T10:54:03.756Z,29.79
2018-09-02T10:55:03.796Z,29.82
2018-09-02T10:56:03.839Z,30.25
2018-09-02T10:57:03.875Z,30.97
2018-09-02T10:58:03.918Z,31.21
2018-09-02T11:00:31.630Z,30.97
2018-09-02T11:01:31.670Z,30.25
2018-09-02T11:02:31.715Z,30.21
2018-09-02T11:03:31.750Z,30.21
2018-09-02T11:05:19.368Z,30.25
2018-09-02T11:06:19.407Z,29.91
2018-09-02T11:07:19.448Z,30.45
2018-09-02T11:08:19.484Z,30.70
2018-09-02T11:09:19.528Z,29.32
2018-09-02T11:10:19.568Z,29.55
2018-09-02T11:11:19.605Z,29.33
2018-09-02T11:12:19.645Z,29.42
2018-09-02T11:13:19.761Z,29.51
2018-09-02T11:14:19.725Z,29.23
2018-09-02T11:15:19.766Z,29.65
2018-09-02T11:16:19.811Z,30.25
2018-09-02T11:17:19.848Z,29.88
2018-09-02T11:18:19.889Z,29.24
2018-09-02T11:19:19.929Z,29.40
2018-09-02T11:20:19.967Z,29.95
2018-09-02T11:21:20.005Z,30.13
2018-09-02T11:22:20.044Z,30.04
2018-09-02T11:23:20.086Z,31.04
2018-09-02T11:24:20.123Z,30.75
2018-09-02T11:25:20.167Z,30.59
2018-09-02T11:26:20.207Z,30.49
2018-09-02T11:27:20.247Z,30.04
2018-09-02T11:28:20.284Z,30.40
2018-09-02T11:29:20.323Z,31.12
2018-09-02T11:30:20.366Z,31.10
2018-09-02T11:31:20.403Z,30.89
2018-09-02T11:32:20.444Z,31.22
2018-09-02T11:33:20.485Z,31.22
2018-09-02T11:34:20.526Z,30.70
2018-09-02T11:35:20.565Z,30.51
2018-09-02T11:36:20.605Z,30.22
2018-09-02T11:37:20.643Z,30.14
2018-09-02T11:38:20.686Z,30.39
2018-09-02T11:39:20.723Z,30.48
2018-09-02T11:40:20.764Z,30.60
2018-09-02T11:41:20.805Z,30.29
2018-09-02T11:42:20.843Z,30.18
2018-09-02T11:43:20.886Z,30.67
2018-09-02T11:44:20.922Z,30.75
2018-09-02T11:45:20.963Z,30.70
2018-09-02T11:46:21.003Z,30.85
2018-09-02T11:47:21.044Z,30.71
2018-09-02T11:48:21.088Z,30.73
2018-09-02T11:49:21.122Z,31.00
2018-09-02T11:50:21.165Z,31.18
2018-09-02T11:51:21.203Z,30.73
2018-09-02T11:52:21.242Z,30.75
2018-09-02T11:53:21.284Z,30.66
2018-09-02T11:54:21.322Z,30.47
2018-09-02T11:55:21.365Z,30.60
2018-09-02T11:56:21.401Z,30.63
2018-09-02T11:57:21.443Z,30.26
2018-09-02T11:58:21.482Z,30.70
2018-09-02T11:59:21.523Z,31.07
2018-09-02T12:00:21.561Z,30.88
2018-09-02T12:01:21.606Z,30.70
2018-09-02T12:02:21.641Z,30.26
2018-09-02T12:03:21.681Z,29.67
2018-09-02T12:04:21.721Z,29.76
2018-09-02T12:05:21.763Z,30.14
2018-09-02T12:06:21.804Z,30.40
2018-09-02T12:07:21.842Z,30.25
2018-09-02T12:08:21.883Z,30.16
2018-09-02T12:09:21.920Z,30.37
2018-09-02T12:10:21.963Z,30.84
2018-09-02T12:11:22.000Z,30.56
2018-09-02T12:12:22.040Z,30.70
2018-09-02T12:13:22.080Z,30.71
2018-09-02T12:14:22.273Z,30.96
2018-09-02T12:15:22.160Z,30.94
2018-09-02T12:16:22.202Z,31.13
2018-09-02T12:17:22.242Z,30.82
2018-09-02T12:18:22.283Z,30.91
2018-09-02T12:19:22.322Z,30.81
2018-09-02T12:20:22.362Z,30.82
2018-09-02T12:21:22.402Z,31.16
2018-09-02T12:22:22.443Z,30.97
2018-09-02T12:23:22.479Z,30.96
2018-09-02T12:24:22.522Z,30.96
2018-09-02T12:25:22.562Z,31.31
2018-09-02T12:26:22.604Z,31.49
2018-09-02T12:27:22.639Z,31.94
2018-09-02T12:28:22.686Z,32.05
2018-09-02T12:29:22.720Z,31.77
2018-09-02T12:30:22.761Z,31.71
2018-09-02T12:31:22.810Z,31.93
2018-09-02T12:32:22.841Z,31.62
2018-09-02T12:33:22.881Z,31.41
2018-09-02T12:34:22.919Z,31.77
2018-09-02T12:35:22.959Z,31.71
2018-09-02T12:36:23.000Z,31.94
2018-09-02T12:37:23.042Z,31.68
2018-09-02T12:38:23.078Z,31.50
2018-09-02T12:39:23.117Z,31.33
2018-09-02T12:40:23.163Z,31.22
2018-09-02T12:41:23.198Z,31.26
2018-09-02T12:42:23.298Z,31.04
2018-09-02T12:43:23.279Z,31.04
2018-09-02T12:44:23.320Z,30.97
2018-09-02T12:45:23.359Z,30.34
2018-09-02T12:46:23.398Z,30.52
2018-09-02T12:47:23.437Z,30.66
2018-09-02T12:48:23.476Z,30.56
2018-09-02T12:49:23.517Z,30.49
2018-09-02T12:50:23.559Z,30.57
2018-09-02T12:51:23.598Z,30.89
2018-09-02T12:52:23.638Z,30.77
2018-09-02T12:53:23.676Z,30.25
2018-09-02T12:54:23.718Z,30.09
2018-09-02T12:55:23.827Z,30.25
2018-09-02T12:56:23.795Z,30.71
2018-09-02T12:57:23.837Z,30.70
2018-09-02T12:58:23.877Z,30.78
2018-09-02T12:59:23.915Z,30.75
2018-09-02T13:00:23.957Z,30.52